Time;durP1;ratioP1;P1;durP2;ratioP2;P2;SDS_P1;SDS_P2;PMS_P1;PMS_P2;Temp;Humidity;BMP_temperature;BMP_pressure;BME280_temperature;BME280_humidity;BME280_pressure;Samples;Min_cycle;Max_cycle;Signal;HPM_P1;HPM_P2
2022/12/05 00:01:25;;;;;;;20.20;12.65;;;;;;;7.93;100.00;101277.22;5087726;28;20452;-31
2022/12/05 00:03:53;;;;;;;19.38;11.15;;;;;;;7.83;100.00;101271.28;5068764;28;20024;-29
2022/12/05 00:06:19;;;;;;;18.67;11.82;;;;;;;7.89;100.00;101289.19;5088073;28;20127;-29
2022/12/05 00:08:46;;;;;;;16.05;11.25;;;;;;;7.81;100.00;101289.22;5069256;28;20028;-29
2022/12/05 00:11:13;;;;;;;17.70;10.65;;;;;;;7.74;100.00;101272.28;5087392;28;20062;-29
2022/12/05 00:13:39;;;;;;;18.05;10.70;;;;;;;7.79;100.00;101293.88;5068969;28;20036;-34
2022/12/05 00:16:14;;;;;;;30.77;15.88;;;;;;;7.82;100.00;101289.03;5068723;28;20074;-32
2022/12/05 00:18:40;;;;;;;17.58;10.25;;;;;;;7.83;100.00;101287.22;5087463;28;20106;-32
2022/12/05 00:21:10;;;;;;;18.13;11.18;;;;;;;7.73;100.00;101257.38;5087383;28;20036;-29
2022/12/05 00:23:36;;;;;;;17.83;9.88;;;;;;;7.82;100.00;101285.53;5087134;28;20764;-31
2022/12/05 00:26:05;;;;;;;15.70;10.25;;;;;;;7.96;100.00;101292.81;5086828;28;20020;-29
2022/12/05 00:28:33;;;;;;;17.38;10.18;;;;;;;8.08;100.00;101284.47;5068797;28;20038;-32
2022/12/05 00:31:04;;;;;;;15.77;8.80;;;;;;;7.92;100.00;101262.28;5086991;28;20091;-31
2022/12/05 00:33:30;;;;;;;13.65;8.65;;;;;;;7.92;100.00;101285.34;5068686;28;20414;-28
2022/12/05 00:36:03;;;;;;;16.33;11.02;;;;;;;7.92;100.00;101277.38;5086831;28;20420;-29
2022/12/05 00:38:29;;;;;;;17.15;9.45;;;;;;;7.90;100.00;101282.03;5087217;28;20028;-30
2022/12/05 00:40:54;;;;;;;15.63;9.38;;;;;;;8.05;100.00;101286.47;5068424;28;20031;-29
2022/12/05 00:43:20;;;;;;;16.27;9.95;;;;;;;8.20;100.00;101280.44;5068362;28;20101;-30
2022/12/05 00:45:45;;;;;;;17.35;9.82;;;;;;;7.95;100.00;101275.22;5086803;28;20036;-28
2022/12/05 00:48:11;;;;;;;16.10;9.80;;;;;;;7.85;100.00;101279.91;5086500;28;20028;-32
2022/12/05 00:50:36;;;;;;;17.52;9.68;;;;;;;7.83;100.00;101276.59;5068665;28;20036;-29
2022/12/05 00:53:01;;;;;;;18.30;10.52;;;;;;;7.82;100.00;101277.59;5068355;28;20550;-34
2022/12/05 00:55:27;;;;;;;17.15;11.00;;;;;;;7.97;100.00;101283.84;5085616;28;20028;-30
2022/12/05 00:57:52;;;;;;;17.70;10.32;;;;;;;7.99;100.00;101275.72;5086434;28;20028;-29
2022/12/05 01:00:18;;;;;;;19.27;11.43;;;;;;;8.04;100.00;101282.16;5086402;28;20031;-31
2022/12/05 01:02:43;;;;;;;16.58;10.23;;;;;;;7.88;100.00;101263.63;5086542;28;20059;-29
2022/12/05 01:05:09;;;;;;;15.25;8.38;;;;;;;7.76;100.00;101264.97;5086595;28;20028;-28
2022/12/05 01:07:34;;;;;;;13.85;7.53;;;;;;;7.94;100.00;101286.84;5086424;28;20047;-28
2022/12/05 01:10:00;;;;;;;11.20;6.82;;;;;;;7.79;100.00;101276.09;5067976;28;20123;-32
2022/12/05 01:12:26;;;;;;;13.30;6.30;;;;;;;7.77;100.00;101271.97;5086467;28;20716;-29
2022/12/05 01:14:52;;;;;;;11.13;6.90;;;;;;;7.90;100.00;101276.72;5086379;28;20059;-29
2022/12/05 01:17:18;;;;;;;12.40;7.18;;;;;;;7.93;100.00;101282.53;5085735;28;20079;-32
2022/12/05 01:19:43;;;;;;;13.80;8.15;;;;;;;8.00;100.00;101280.84;5085826;28;20036;-28
2022/12/05 01:22:08;;;;;;;13.27;8.43;;;;;;;7.88;100.00;101279.56;5067839;28;20050;-32
2022/12/05 01:24:34;;;;;;;12.80;6.97;;;;;;;7.86;100.00;101284.22;5086153;28;20028;-31
2022/12/05 01:27:00;;;;;;;12.27;7.25;;;;;;;7.79;100.00;101265.47;5085868;28;20028;-30
2022/12/05 01:29:25;;;;;;;11.25;7.13;;;;;;;7.84;100.00;101280.91;5086330;28;20040;-30
2022/12/05 01:31:52;;;;;;;13.98;7.63;;;;;;;7.91;100.00;101268.59;5085964;28;20028;-29
2022/12/05 01:34:18;;;;;;;12.65;7.53;;;;;;;7.98;100.00;101258.94;5086194;28;20035;-28
2022/12/05 01:36:44;;;;;;;12.25;6.95;;;;;;;7.99;100.00;101271.22;5067754;28;20101;-33
2022/12/05 01:39:10;;;;;;;11.40;6.85;;;;;;;7.90;100.00;101261.63;5085857;28;20024;-32
2022/12/05 01:41:40;;;;;;;11.43;6.68;;;;;;;7.88;100.00;101271.59;5067665;28;20024;-29
2022/12/05 01:44:11;;;;;;;12.68;7.53;;;;;;;7.89;100.00;101259.16;5067969;28;20036;-28
2022/12/05 01:46:57;;;;;;;16.17;8.88;;;;;;;7.78;100.00;101260.34;5086024;28;20533;-31
2022/12/05 01:49:36;;;;;;;13.40;7.93;;;;;;;8.03;100.00;101256.59;5085321;28;20052;-35
2022/12/05 01:52:07;;;;;;;14.30;8.77;;;;;;;8.00;100.00;101259.59;5085447;28;20060;-31
2022/12/05 01:54:35;;;;;;;16.67;10.32;;;;;;;7.93;100.00;101253.31;5086207;28;20040;-28
2022/12/05 01:57:07;;;;;;;16.50;9.70;;;;;;;7.79;100.00;101235.44;5086079;28;20028;-28
2022/12/05 01:59:37;;;;;;;12.27;7.72;;;;;;;7.74;100.00;101249.22;5067243;28;20047;-30
2022/12/05 02:02:03;;;;;;;13.07;7.60;;;;;;;7.71;100.00;101236.28;5067266;28;20028;-33
2022/12/05 02:04:29;;;;;;;14.15;7.32;;;;;;;7.88;100.00;101237.06;5085849;28;20145;-31
2022/12/05 02:06:54;;;;;;;9.70;5.45;;;;;;;7.85;100.00;101242.72;5068590;28;20151;-28
2022/12/05 02:09:21;;;;;;;10.05;6.15;;;;;;;7.74;100.00;101245.75;5071417;28;20039;-30
2022/12/05 02:11:53;;;;;;;9.50;5.18;;;;;;;7.76;100.00;101222.50;5089964;28;20027;-35
2022/12/05 02:14:18;;;;;;;9.70;5.50;;;;;;;7.89;100.00;101238.72;5071466;28;20131;-28
2022/12/05 02:16:52;;;;;;;10.52;5.97;;;;;;;7.91;100.00;101243.88;5089448;28;20169;-30
2022/12/05 02:19:47;;;;;;;10.15;6.07;;;;;;;7.96;100.00;101244.16;5089531;28;20043;-31
2022/12/05 02:22:37;;;;;;;10.45;5.68;;;;;;;7.93;100.00;101248.00;5089641;28;20020;-29
2022/12/05 02:25:24;;;;;;;11.10;6.05;;;;;;;7.82;100.00;101245.72;5089618;28;20094;-32
2022/12/05 02:28:07;;;;;;;9.77;5.95;;;;;;;7.79;100.00;101241.56;5089310;28;20395;-29
2022/12/05 02:31:03;;;;;;;11.27;6.50;;;;;;;7.85;100.00;101243.56;5070779;28;20196;-29
2022/12/05 02:33:45;;;;;;;14.75;6.82;;;;;;;7.77;100.00;101218.84;5045616;28;20068;-29
2022/12/05 02:36:40;;;;;;;12.43;6.82;;;;;;;7.82;100.00;101240.41;5071252;28;20629;-29
2022/12/05 02:39:20;;;;;;;11.02;6.65;;;;;;;7.93;100.00;101233.91;5081205;28;20040;-28
2022/12/05 02:41:51;;;;;;;14.18;7.18;;;;;;;7.84;100.00;101219.81;5089015;28;20835;-30
2022/12/05 02:44:23;;;;;;;10.63;6.78;;;;;;;7.75;100.00;101220.84;5089050;28;20028;-27
2022/12/05 02:46:51;;;;;;;19.25;8.98;;;;;;;7.83;100.00;101239.41;5070686;28;20040;-30
2022/12/05 02:49:22;;;;;;;15.90;8.70;;;;;;;7.90;100.00;101235.06;5089124;28;20031;-28
2022/12/05 02:51:54;;;;;;;19.65;9.68;;;;;;;7.96;100.00;101239.69;5070760;28;20123;-33
2022/12/05 02:54:24;;;;;;;27.70;12.73;;;;;;;7.83;100.00;101239.41;5089181;28;20032;-29
2022/12/05 02:56:51;;;;;;;22.83;10.45;;;;;;;7.83;100.00;101239.41;5089059;28;20032;-31
2022/12/05 02:59:17;;;;;;;14.52;7.40;;;;;;;7.73;100.00;101217.53;5088988;28;20032;-32
2022/12/05 03:01:45;;;;;;;14.38;8.02;;;;;;;7.82;100.00;101229.78;5088869;28;20028;-29
2022/12/05 03:04:12;;;;;;;11.85;6.18;;;;;;;7.79;100.00;101238.09;5070731;28;20115;-29
2022/12/05 03:06:37;;;;;;;10.40;5.70;;;;;;;7.95;100.00;101243.34;5088946;28;20035;-37
2022/12/05 03:09:09;;;;;;;11.20;6.45;;;;;;;7.85;100.00;101248.03;5088663;28;20273;-30
2022/12/05 03:11:48;;;;;;;12.20;6.38;;;;;;;7.65;100.00;101213.91;5088708;28;20101;-32
2022/12/05 03:14:22;;;;;;;10.48;5.72;;;;;;;7.82;100.00;101245.72;5088592;28;20024;-28
2022/12/05 03:16:51;;;;;;;9.20;5.82;;;;;;;7.76;100.00;101244.56;5088550;28;20083;-30
2022/12/05 03:19:33;;;;;;;12.63;7.35;;;;;;;7.81;100.00;101241.41;5087493;28;20507;-29
2022/12/05 03:22:15;;;;;;;12.48;7.85;;;;;;;7.87;100.00;101248.69;5070252;28;20517;-31
2022/12/05 03:24:41;;;;;;;11.13;6.80;;;;;;;7.85;100.00;101240.06;5070201;28;20107;-28
2022/12/05 03:27:11;;;;;;;13.30;7.30;;;;;;;7.86;100.00;101252.34;5070229;28;20115;-28
2022/12/05 03:29:45;;;;;;;15.20;7.70;;;;;;;7.78;100.00;101231.13;5088257;28;20115;-29
2022/12/05 03:32:28;;;;;;;13.05;7.47;;;;;;;7.79;100.00;101248.72;5088362;28;20060;-29
2022/12/05 03:35:12;;;;;;;14.95;7.63;;;;;;;7.84;100.00;101257.81;5088362;28;20538;-26
2022/12/05 03:37:42;;;;;;;12.85;7.40;;;;;;;7.79;100.00;101260.16;5088270;28;20208;-31
2022/12/05 03:40:13;;;;;;;12.63;7.55;;;;;;;7.82;100.00;101253.69;5088064;28;20036;-29
2022/12/05 03:42:48;;;;;;;15.48;7.55;;;;;;;7.85;100.00;101253.34;5069865;28;20558;-30
2022/12/05 03:45:19;;;;;;;12.00;6.93;;;;;;;7.87;100.00;101251.34;5088366;28;20798;-29
2022/12/05 03:47:57;;;;;;;16.13;7.30;;;;;;;7.67;100.00;101250.09;5069668;28;20028;-34
2022/12/05 03:50:27;;;;;;;15.00;7.65;;;;;;;7.51;100.00;101246.47;5069795;28;20032;-29
2022/12/05 03:53:21;;;;;;;13.65;8.02;;;;;;;7.69;100.00;101254.22;5069410;28;20027;-30
2022/12/05 03:56:09;;;;;;;14.93;8.35;;;;;;;7.56;100.00;101253.91;5087750;28;20027;-33
2022/12/05 03:58:42;;;;;;;13.25;7.53;;;;;;;7.41;100.00;101245.81;5087053;28;20086;-33
2022/12/05 04:01:10;;;;;;;14.63;8.45;;;;;;;7.58;100.00;101241.31;5069229;28;20586;-29
2022/12/05 04:03:43;;;;;;;14.68;8.45;;;;;;;7.63;100.00;101245.09;5069258;28;20047;-28
2022/12/05 04:06:19;;;;;;;14.85;7.97;;;;;;;7.64;100.00;101249.44;5069601;28;20032;-29
2022/12/05 04:08:52;;;;;;;17.02;8.85;;;;;;;7.34;100.00;101219.16;5087631;28;20032;-30
2022/12/05 04:11:21;;;;;;;19.02;10.65;;;;;;;7.37;100.00;101231.25;5069144;28;20044;-28
2022/12/05 04:13:58;;;;;;;24.13;12.25;;;;;;;7.52;100.00;101247.28;5068763;28;20502;-31
2022/12/05 04:19:27;;;;;;;14.85;9.10;;;;;;;7.59;100.00;101238.47;5087601;28;20465;-32
2022/12/05 04:21:54;;;;;;;17.33;10.20;;;;;;;7.78;100.00;101252.38;5087074;28;20043;-33
2022/12/05 04:27:28;;;;;;;19.15;9.93;;;;;;;7.57;100.00;101250.28;5087395;28;20153;-30
2022/12/05 04:30:03;;;;;;;18.17;9.73;;;;;;;7.47;100.00;101250.47;5086666;28;20032;-31
2022/12/05 04:32:42;;;;;;;15.27;9.18;;;;;;;7.39;100.00;101232.72;5086865;28;20035;-30
2022/12/05 04:35:19;;;;;;;12.82;7.68;;;;;;;7.60;100.00;101249.94;5087344;28;20035;-34
2022/12/05 04:37:49;;;;;;;16.00;7.60;;;;;;;7.59;100.00;101242.97;5068452;28;20042;-27
2022/12/05 04:40:37;;;;;;;11.38;6.30;;;;;;;7.67;100.00;101244.78;5068614;28;20942;-28
2022/12/05 04:43:04;;;;;;;14.38;7.63;;;;;;;7.50;100.00;101250.13;5068778;28;20463;-29
2022/12/05 04:45:31;;;;;;;15.93;7.72;;;;;;;7.31;100.00;101251.31;5068342;28;20101;-29
2022/12/05 04:48:01;;;;;;;12.43;7.55;;;;;;;7.20;100.00;101227.78;5068393;28;20032;-31
2022/12/05 04:50:31;;;;;;;15.73;9.10;;;;;;;7.35;100.00;101241.19;5068560;28;20123;-29
2022/12/05 04:52:58;;;;;;;26.85;16.20;;;;;;;7.43;100.00;101235.88;5068163;28;20036;-31
2022/12/05 04:55:25;;;;;;;24.17;14.55;;;;;;;7.56;100.00;101254.78;5067920;28;20054;-30
2022/12/05 04:58:02;;;;;;;29.50;19.13;;;;;;;7.46;100.00;101251.47;5086465;28;20032;-29
2022/12/05 05:00:29;;;;;;;35.03;23.87;;;;;;;7.35;100.00;101246.50;5086449;28;20032;-28
2022/12/05 05:03:28;;;;;;;36.13;22.17;;;;;;;7.55;100.00;101242.47;5086717;28;20035;-29
2022/12/05 05:05:56;;;;;;;33.25;20.83;;;;;;;7.62;100.00;101251.44;5086110;28;20404;-28
2022/12/05 05:08:26;;;;;;;23.67;14.15;;;;;;;7.61;100.00;101251.59;5068302;28;20035;-28
2022/12/05 05:10:59;;;;;;;22.27;14.18;;;;;;;7.75;100.00;101263.34;5068277;28;20108;-28
2022/12/05 05:13:25;;;;;;;23.00;13.30;;;;;;;7.65;100.00;101253.72;5068136;28;20494;-30
2022/12/05 05:15:50;;;;;;;21.08;12.80;;;;;;;7.47;100.00;101253.13;5086184;28;20032;-33
2022/12/05 05:18:16;;;;;;;24.88;14.63;;;;;;;7.43;100.00;101249.13;5067889;28;20520;-28
2022/12/05 05:20:41;;;;;;;21.42;13.60;;;;;;;7.40;100.00;101244.19;5086387;28;20035;-28
2022/12/05 05:23:07;;;;;;;19.65;13.27;;;;;;;7.26;100.00;101236.91;5086490;28;20032;-37
2022/12/05 05:25:32;;;;;;;21.23;12.60;;;;;;;7.49;100.00;101261.72;5067828;28;20028;-31
2022/12/05 05:27:57;;;;;;;23.10;12.85;;;;;;;7.70;100.00;101260.34;5067932;28;20032;-31
2022/12/05 05:30:24;;;;;;;25.08;13.15;;;;;;;7.74;100.00;101251.06;5086217;28;20393;-30
2022/12/05 05:32:50;;;;;;;19.73;12.85;;;;;;;7.94;100.00;101262.94;5085995;28;20115;-29
2022/12/05 05:35:15;;;;;;;20.35;13.05;;;;;;;7.83;100.00;101255.34;5086279;28;20831;-27
2022/12/05 05:37:41;;;;;;;24.05;13.13;;;;;;;7.74;100.00;101256.38;5067591;28;20427;-32
2022/12/05 05:40:09;;;;;;;22.70;12.88;;;;;;;7.84;100.00;101254.34;5086166;28;20040;-30
2022/12/05 05:42:34;;;;;;;20.63;12.98;;;;;;;7.84;100.00;101246.38;5067141;28;20050;-33
2022/12/05 05:45:00;;;;;;;22.48;12.80;;;;;;;7.77;100.00;101250.72;5086169;28;20032;-32
2022/12/05 05:47:25;;;;;;;21.70;12.52;;;;;;;7.63;100.00;101255.72;5085816;28;20027;-31
2022/12/05 05:49:51;;;;;;;23.13;13.75;;;;;;;7.58;100.00;101250.13;5086183;28;20044;-31
2022/12/05 05:52:16;;;;;;;26.88;15.07;;;;;;;7.38;100.00;101247.00;5086115;28;20051;-29
2022/12/05 05:54:42;;;;;;;20.52;12.75;;;;;;;7.28;100.00;101226.97;5086073;28;20024;-32
2022/12/05 05:57:07;;;;;;;22.27;12.18;;;;;;;7.62;100.00;101270.00;5086089;28;20035;-28
2022/12/05 05:59:32;;;;;;;23.35;14.25;;;;;;;7.53;100.00;101264.88;5067511;28;20411;-28
2022/12/05 06:01:58;;;;;;;25.80;15.13;;;;;;;7.64;100.00;101260.06;5086159;28;20060;-32
2022/12/05 06:04:24;;;;;;;23.90;15.30;;;;;;;7.82;100.00;101264.31;5086067;28;20028;-31
2022/12/05 06:06:49;;;;;;;22.08;13.63;;;;;;;7.71;100.00;101262.03;5086291;28;20545;-28
2022/12/05 06:09:14;;;;;;;26.05;15.63;;;;;;;7.71;100.00;101264.69;5085968;28;20465;-32
2022/12/05 06:11:40;;;;;;;25.02;15.45;;;;;;;7.77;100.00;101261.34;5085654;28;20442;-32
2022/12/05 06:14:05;;;;;;;25.48;15.65;;;;;;;7.70;100.00;101247.09;5067588;28;20032;-28
2022/12/05 06:16:31;;;;;;;27.15;15.25;;;;;;;7.63;100.00;101233.66;5085236;28;20555;-32
2022/12/05 06:18:57;;;;;;;22.95;15.88;;;;;;;7.36;100.00;101237.56;5086038;28;20109;-29
2022/12/05 06:21:23;;;;;;;24.13;14.02;;;;;;;7.33;100.00;101238.69;5067482;28;20503;-29
2022/12/05 06:23:49;;;;;;;22.58;13.63;;;;;;;7.45;100.00;101242.66;5085800;28;20032;-36
2022/12/05 06:26:17;;;;;;;24.42;15.15;;;;;;;7.33;100.00;101237.88;5085669;28;20098;-28
2022/12/05 06:28:43;;;;;;;;;;;;;;;7.22;100.00;101245.19;5068072;28;20500;-28
2022/12/05 06:31:14;;;;;;;34.63;20.20;;;;;;;7.19;100.00;101226.97;5085518;28;19916;-32
2022/12/05 06:33:39;;;;;;;35.53;21.13;;;;;;;7.37;100.00;101249.81;5067400;28;20122;-31
2022/12/05 06:36:08;;;;;;;36.20;21.00;;;;;;;7.60;100.00;101261.41;5086091;28;20028;-31
2022/12/05 06:38:34;;;;;;;65.25;32.95;;;;;;;7.51;100.00;101259.75;5067369;28;20029;-29
2022/12/05 06:40:59;;;;;;;75.78;32.85;;;;;;;7.64;100.00;101272.47;5067328;28;20040;-30
2022/12/05 06:43:25;;;;;;;64.82;29.65;;;;;;;7.70;100.00;101270.97;5085427;28;20028;-29
2022/12/05 06:45:50;;;;;;;33.95;17.60;;;;;;;7.70;100.00;101249.75;5066761;28;20032;-29
2022/12/05 06:48:16;;;;;;;42.63;20.65;;;;;;;7.88;100.00;101276.91;5085637;28;20686;-30
2022/12/05 06:50:52;;;;;;;35.63;19.05;;;;;;;7.94;100.00;101278.88;5085518;28;20020;-30
2022/12/05 06:53:19;;;;;;;55.90;24.67;;;;;;;7.93;100.00;101282.53;5085194;28;20020;-33
2022/12/05 06:55:54;;;;;;;71.80;34.38;;;;;;;8.08;100.00;101297.75;5089142;28;20113;-30
2022/12/05 06:58:20;;;;;;;42.83;22.50;;;;;;;8.11;100.00;101284.13;5070410;28;20055;-29
2022/12/05 07:03:29;;;;;;;25.50;14.15;;;;;;;8.19;99.42;101308.00;5089120;28;20123;-33
2022/12/05 07:05:54;;;;;;;22.58;12.90;;;;;;;8.05;100.00;101286.47;5088710;28;20103;-31
2022/12/05 07:08:20;;;;;;;25.80;15.55;;;;;;;8.19;100.00;101308.00;5088686;28;20031;-33
2022/12/05 07:10:52;;;;;;;44.53;23.90;;;;;;;8.21;100.00;101311.31;5070357;28;20082;-29
2022/12/05 07:13:18;;;;;;;30.85;17.52;;;;;;;8.18;100.00;101315.16;5088892;28;20035;-32
2022/12/05 07:15:48;;;;;;;33.75;19.52;;;;;;;8.16;100.00;101316.31;5088487;28;20055;-32
2022/12/05 07:18:14;;;;;;;28.17;15.07;;;;;;;7.83;100.00;101298.66;5070031;28;20511;-28
2022/12/05 07:20:40;;;;;;;32.13;17.52;;;;;;;8.22;100.00;101331.59;5070351;28;20040;-31
2022/12/05 07:23:05;;;;;;;27.45;16.05;;;;;;;8.42;99.25;101324.06;5070307;28;20036;-30
2022/12/05 07:25:30;;;;;;;29.83;16.48;;;;;;;8.28;99.97;101322.91;5088368;28;20036;-31
2022/12/05 07:27:56;;;;;;;28.48;14.68;;;;;;;8.28;99.69;101306.97;5070081;28;20024;-29
2022/12/05 07:30:21;;;;;;;24.92;14.98;;;;;;;8.53;99.09;101328.97;5088500;28;20070;-29
2022/12/05 07:32:47;;;;;;;24.83;13.45;;;;;;;8.47;98.87;101329.66;5088315;28;20032;-32
2022/12/05 07:35:12;;;;;;;29.25;15.48;;;;;;;8.30;99.31;101315.59;5069689;28;20032;-28
2022/12/05 07:37:38;;;;;;;42.67;20.23;;;;;;;8.40;98.81;101304.75;5088069;28;20036;-34
2022/12/05 07:40:04;;;;;;;27.10;15.52;;;;;;;8.52;98.76;101326.47;5087594;28;20029;-29
2022/12/05 07:42:29;;;;;;;28.25;14.95;;;;;;;8.69;97.42;101317.41;5069625;28;20036;-31
2022/12/05 07:44:55;;;;;;;26.13;14.13;;;;;;;8.78;97.79;101312.88;5088119;28;20024;-28
2022/12/05 07:47:20;;;;;;;51.25;26.02;;;;;;;8.86;97.41;101318.13;5069496;28;20043;-31
2022/12/05 07:49:46;;;;;;;31.63;18.02;;;;;;;8.97;97.21;101312.41;5087733;28;20126;-29
2022/12/05 07:52:11;;;;;;;30.13;18.02;;;;;;;9.11;95.86;101291.34;5087784;28;20032;-29
2022/12/05 07:54:36;;;;;;;23.67;14.57;;;;;;;9.33;95.95;101310.97;5087574;28;20031;-35
2022/12/05 07:57:02;;;;;;;29.88;14.93;;;;;;;9.31;94.40;101304.97;5088094;28;20032;-31
2022/12/05 07:59:27;;;;;;;43.13;21.60;;;;;;;9.12;95.65;101293.84;5087695;28;20548;-32
2022/12/05 08:01:53;;;;;;;45.17;22.77;;;;;;;9.13;95.00;101292.81;5069336;28;20453;-28
2022/12/05 08:04:18;;;;;;;44.72;22.85;;;;;;;9.36;93.60;101316.75;5087176;28;20028;-29
2022/12/05 08:06:44;;;;;;;46.72;21.65;;;;;;;9.39;93.44;101320.88;5087678;28;20031;-30
2022/12/05 08:09:10;;;;;;;31.15;17.88;;;;;;;9.36;92.79;101308.78;5087378;28;20058;-30
2022/12/05 08:11:35;;;;;;;57.53;28.40;;;;;;;9.39;92.97;101289.75;5087928;28;20032;-30
2022/12/05 08:14:03;;;;;;;36.80;19.67;;;;;;;9.54;92.36;101312.91;5087187;28;20035;-30
2022/12/05 08:16:30;;;;;;;32.55;18.08;;;;;;;9.55;91.58;101312.75;5069009;28;20124;-34
2022/12/05 08:19:00;;;;;;;32.25;16.30;;;;;;;9.49;92.25;101305.47;5087182;28;20881;-31
2022/12/05 08:21:27;;;;;;;25.42;14.93;;;;;;;9.53;90.41;101290.78;5087222;28;20038;-31
2022/12/05 08:23:52;;;;;;;32.83;17.35;;;;;;;9.49;90.97;101304.66;5068347;28;20047;-28
2022/12/05 08:26:26;;;;;;;29.02;16.02;;;;;;;9.41;90.99;101282.41;5087361;28;20048;-27
2022/12/05 08:29:01;;;;;;;29.42;17.15;;;;;;;9.53;91.35;101298.78;5068959;28;20101;-29
2022/12/05 08:31:28;;;;;;;31.40;16.92;;;;;;;9.45;90.49;101285.56;5087148;28;20039;-28
2022/12/05 08:33:56;;;;;;;27.27;15.47;;;;;;;9.58;90.22;101285.75;5086900;28;20502;-30
2022/12/05 08:36:22;;;;;;;27.95;16.88;;;;;;;9.79;89.67;101300.19;5087011;28;20561;-32
2022/12/05 08:38:47;;;;;;;25.20;14.85;;;;;;;9.84;86.95;101292.47;5087004;28;20081;-30
2022/12/05 08:41:15;;;;;;;25.83;13.40;;;;;;;9.64;87.80;101294.84;5068679;28;20024;-32
2022/12/05 08:43:41;;;;;;;23.97;12.83;;;;;;;9.55;89.91;101294.09;5086875;28;20059;-28
2022/12/05 08:46:07;;;;;;;23.90;13.75;;;;;;;9.72;88.22;101281.44;5086854;28;20797;-28
2022/12/05 08:48:34;;;;;;;27.23;14.88;;;;;;;9.74;88.09;101300.72;5087111;28;20039;-31
2022/12/05 08:51:08;;;;;;;24.73;13.52;;;;;;;9.67;89.29;101301.66;5068021;28;20036;-31
2022/12/05 08:53:35;;;;;;;24.85;14.43;;;;;;;9.63;88.93;101283.38;5067810;28;20547;-30
2022/12/05 08:56:05;;;;;;;27.05;16.05;;;;;;;9.78;89.13;101282.53;5068019;28;20055;-28
2022/12/05 08:58:31;;;;;;;25.20;14.10;;;;;;;10.03;88.25;101297.25;5086567;28;20604;-32
2022/12/05 09:01:05;;;;;;;26.67;13.68;;;;;;;10.06;86.97;101291.53;5086589;28;20032;-34
2022/12/05 09:03:30;;;;;;;26.30;14.50;;;;;;;10.21;86.37;101288.84;5086709;28;20032;-28
2022/12/05 09:06:05;;;;;;;27.20;14.43;;;;;;;10.47;85.92;101278.72;5086366;28;20089;-34
2022/12/05 09:08:30;;;;;;;22.45;14.30;;;;;;;10.89;85.55;101269.06;5068222;28;20093;-28
2022/12/05 09:10:56;;;;;;;23.77;13.18;;;;;;;11.01;81.65;101272.88;5086851;28;20036;-29
2022/12/05 09:13:21;;;;;;;32.83;17.27;;;;;;;10.93;81.40;101257.00;5086209;28;20069;-32
2022/12/05 09:15:46;;;;;;;24.08;14.02;;;;;;;11.06;82.36;101265.97;5085853;28;20035;-38
2022/12/05 09:18:13;;;;;;;24.27;14.50;;;;;;;11.04;84.00;101256.50;5085620;28;20050;-31
2022/12/05 09:20:39;;;;;;;25.25;15.00;;;;;;;11.12;80.52;101252.88;5086511;28;20036;-30
2022/12/05 09:23:04;;;;;;;21.70;11.63;;;;;;;10.69;77.58;101245.72;5086372;28;20077;-33
2022/12/05 09:25:29;;;;;;;24.80;12.90;;;;;;;10.90;80.91;101250.22;5086279;28;20115;-33
2022/12/05 09:27:55;;;;;;;20.58;11.43;;;;;;;10.86;77.25;101244.44;5086058;28;20459;-34
2022/12/05 09:30:20;;;;;;;20.52;11.93;;;;;;;11.05;75.48;101247.44;5067700;28;20183;-30
2022/12/05 09:32:46;;;;;;;22.88;12.60;;;;;;;11.04;77.63;101243.16;5086169;28;20017;-32
2022/12/05 09:35:11;;;;;;;35.53;22.90;;;;;;;11.22;78.62;101235.50;5067848;28;20769;-30
2022/12/05 09:37:36;;;;;;;22.40;12.02;;;;;;;11.18;76.62;101244.91;5085960;28;20024;-30
2022/12/05 09:40:02;;;;;;;25.48;12.68;;;;;;;11.04;75.17;101224.47;5085634;28;20035;-32
2022/12/05 09:42:50;;;;;;;25.50;13.00;;;;;;;10.99;77.11;101237.53;5086262;28;20035;-31
2022/12/05 09:45:32;;;;;;;26.80;15.82;;;;;;;10.87;78.94;101245.28;5067853;28;20028;-33
2022/12/05 09:48:06;;;;;;;40.05;17.52;;;;;;;10.80;77.19;101241.69;5085910;28;20039;-32
2022/12/05 09:50:54;;;;;;;33.03;16.67;;;;;;;10.70;79.25;101239.34;5067969;28;20033;-36
2022/12/05 09:53:30;;;;;;;;;;;;;;;10.46;79.14;101243.22;5067842;28;20480;-37
2022/12/05 09:56:08;;;;;;;29.20;15.02;;;;;;;10.60;79.39;101234.34;5067668;28;19912;-31
2022/12/05 09:58:39;;;;;;;22.70;11.50;;;;;;;10.66;78.45;101227.41;5085729;28;20032;-33
2022/12/05 10:01:20;;;;;;;27.38;14.55;;;;;;;10.91;79.00;101232.34;5085947;28;20497;-32
2022/12/05 10:04:03;;;;;;;29.95;15.68;;;;;;;10.97;77.64;101219.09;5084692;28;20028;-30
2022/12/05 10:06:38;;;;;;;35.08;22.70;;;;;;;11.11;76.61;101219.97;5080435;28;20889;-33
2022/12/05 10:09:43;;;;;;;25.80;13.27;;;;;;;11.27;74.15;101222.34;5067422;28;20028;-29
2022/12/05 10:12:36;;;;;;;19.30;10.68;;;;;;;11.08;74.12;101215.06;5043745;28;20028;-29
2022/12/05 10:15:34;;;;;;;25.60;14.13;;;;;;;11.02;76.31;101224.66;5085580;28;20034;-29
2022/12/05 10:18:09;;;;;;;23.23;12.30;;;;;;;11.23;73.79;101209.59;5059953;28;20052;-31
2022/12/05 10:20:49;;;;;;;22.20;12.23;;;;;;;11.25;73.93;101211.03;5085328;28;20090;-34
2022/12/05 10:23:25;;;;;;;25.58;14.00;;;;;;;11.31;74.55;101213.97;5067601;28;20557;-29
2022/12/05 10:25:57;;;;;;;28.50;15.45;;;;;;;11.31;75.50;101219.31;5085288;28;20036;-28
2022/12/05 10:28:38;;;;;;;25.38;13.27;;;;;;;11.46;73.15;101206.66;5068927;28;20052;-31
2022/12/05 10:31:09;;;;;;;21.20;11.82;;;;;;;11.46;74.75;101215.53;5089135;28;20039;-31
2022/12/05 10:33:39;;;;;;;20.88;10.70;;;;;;;11.32;73.14;101207.59;5088822;28;20511;-33
2022/12/05 10:36:12;;;;;;;23.33;12.82;;;;;;;11.18;73.82;101188.84;5086307;28;20028;-31
2022/12/05 10:38:39;;;;;;;22.60;12.63;;;;;;;11.18;75.38;101194.19;5070836;28;20024;-29
2022/12/05 10:41:12;;;;;;;23.95;12.63;;;;;;;11.03;78.60;101201.44;5070850;28;20031;-31
2022/12/05 10:43:41;;;;;;;22.13;12.27;;;;;;;10.82;77.09;101205.81;5070894;28;20070;-33
2022/12/05 10:46:07;;;;;;;22.08;12.27;;;;;;;10.65;77.91;101175.91;5071046;28;20020;-29
2022/12/05 10:48:38;;;;;;;20.15;11.82;;;;;;;10.59;78.10;101173.19;5071025;28;20032;-29
2022/12/05 10:51:05;;;;;;;25.25;12.50;;;;;;;10.63;78.95;101193.94;5070813;28;20073;-31
2022/12/05 10:53:52;;;;;;;24.00;13.00;;;;;;;10.63;79.56;101201.13;5088982;28;20051;-34
2022/12/05 10:56:37;;;;;;;24.23;13.43;;;;;;;10.58;79.10;101195.53;5070799;28;20081;-35
2022/12/05 10:59:04;;;;;;;27.60;14.88;;;;;;;10.52;80.11;101190.94;5088829;28;20032;-28
2022/12/05 11:01:30;;;;;;;25.00;13.73;;;;;;;10.58;80.04;101187.53;5070516;28;20734;-29
2022/12/05 11:03:57;;;;;;;26.02;11.77;;;;;;;10.64;78.46;101194.75;5088570;28;20036;-32
2022/12/05 11:06:26;;;;;;;23.45;12.82;;;;;;;10.41;80.07;101187.78;5088565;28;20024;-32
2022/12/05 11:09:23;;;;;;;23.70;12.15;;;;;;;10.56;80.95;101189.56;5070364;28;20112;-29
2022/12/05 11:12:03;;;;;;;22.08;11.82;;;;;;;10.56;77.16;101179.72;5087214;28;20173;-32
2022/12/05 11:14:32;;;;;;;23.80;12.80;;;;;;;10.50;77.42;101171.66;5069910;28;20060;-31
2022/12/05 11:16:59;;;;;;;22.52;13.10;;;;;;;10.61;78.40;101171.97;5088450;28;20078;-29
2022/12/05 11:19:43;;;;;;;23.23;13.77;;;;;;;10.72;77.06;101170.63;5069996;28;20028;-35
2022/12/05 11:22:15;;;;;;;21.75;12.20;;;;;;;10.75;77.77;101154.22;5070280;28;20047;-28
2022/12/05 11:24:41;;;;;;;20.98;11.80;;;;;;;10.73;78.13;101158.94;5088482;28;20473;-29
2022/12/05 11:27:15;;;;;;;26.27;13.82;;;;;;;10.57;79.13;101164.53;5088195;28;20023;-30
2022/12/05 11:30:02;;;;;;;24.00;11.98;;;;;;;10.61;78.87;101160.47;5069631;28;20058;-32
2022/12/05 11:32:31;;;;;;;21.00;11.02;;;;;;;10.88;78.35;101160.69;5087488;28;20117;-28
2022/12/05 11:35:05;;;;;;;23.20;11.48;;;;;;;10.81;78.69;101155.31;5069766;28;20024;-29
2022/12/05 11:37:37;;;;;;;20.90;10.77;;;;;;;10.73;77.75;101155.47;5069596;28;20032;-35